Aviation Digital Data Service (ADDS)

Output produced by METARs form (1339 UTC 03 December 2016)
found at http://aviationweather.gov/adds/metars/
 
KRDU 031126Z 0312/0412 00000KT P6SM SCT250 
     FM031400 33008KT P6SM SCT200 
     FM040200 VRB03KT P6SM BKN150 
     FM040600 VRB03KT P6SM OVC100 
     FM041000 VRB03KT P6SM OVC050